Novgorod, Russia
Current Conditions -  °F | °C
As of 12:30 PM on Monday 20 Oct 2014 (Local Time) from ULLI Reporting Station
Light Fog Light Fog  
Wind Chill: 32°   Ceiling: 100
Heat Index: 36°   Visibility: 0.34mi
Dew Point: 36°   Wind: 4mph
Humidity: 100%   Direction: 100°E
Pressure: 29.32"   Gusts: NA
Location:  58.55°N, 31.28°E
Report Text: ULLI 200930Z 10002MPS 0550 R10R/0800VP2000D R10L/0450V1000DPRFG BR OVC001 02/02 Q0993 88290050 TEMPO OVC001 RMK QBB050 OBSTOBSC
Loading
Personal Weather Stations






























Interactive Weather Map
Tropical Storm Tracking
New forecast layout! Learn more

10-Day Weather Forecast

Advertisements
Track Severe Weather on mobile